• Join FlightAware (Why Join?)
  • Login
  • US Flag 
07:30AM EDT


 

Airport Tracker/Info


-or-


 

Live Flight TrackerFlight Track Log ✈ AWI3918 ✈ 08-May-2013 ✈ KDCA - CYUL

Flight Track Log - Related Links

Times and Time Zones

All times are in EDT time to prevent confusion due to time zone crossing. See the AWI3918 flight status page for this flight to view local times or setup timezone preferences in your user account.

Time Position Orientation Groundspeed Altitude Reporting Facility
EDT Latitude Longitude Course Direction KTS MPH feet Rate Location/Type
11:00PM 38.8333 -77.0333 90° East 157 181 900  Level Potomac TRACON
11:01PM 38.7667 -77.0333 180° South 204 235 2,900 2,160 Climbing Potomac TRACON
11:02PM 38.9757 -76.6652 57° Northeast  Level FlightAware Approximate
11:02PM 38.7500 -76.9667 108° East 276 318 5,500  Level Potomac TRACON
11:03PM 39.0246 -76.5428 67° East  Level FlightAware Approximate
11:04PM 39.0727 -76.4193 61° Northeast  Level FlightAware Approximate
11:04PM 38.8406 -76.8150 52° Northeast 289 333 10,900  Level Washington Center
11:05PM 39.1167 -76.2956 90° East  Level FlightAware Approximate
11:05PM 38.9200 -76.7708 23° Northeast 285 328 13,400  Level Washington Center
11:06PM 38.9731 -76.6783 54° Northeast 290 334 14,300 960 Climbing Washington Center
11:07PM 39.0178 -76.5614 64° Northeast 321 369 15,400 1,140 Climbing Washington Center
11:08PM 39.0667 -76.4417 62° Northeast 350 403 16,700 1,500 Climbing Washington Center
11:09PM 39.0989 -76.3111 72° East 367 422 18,400 1,440 Climbing Washington Center
11:10PM 39.1244 -76.1803 76° East 373 429 19,600 1,140 Climbing Washington Center
11:11PM 39.1583 -76.0439 72° East 379 436 20,800 960 Climbing Washington Center
11:12PM 39.1900 -75.9075 73° East 384 442 21,600 840 Climbing Washington Center
11:13PM 39.2633 -75.7928 50° Northeast 389 448 22,500 840 Climbing Washington Center
11:14PM 39.3447 -75.6856 46° Northeast 402 463 23,300 720 Climbing Washington Center
11:15PM 39.4303 -75.5756 45° Northeast 417 480 24,000 720 Climbing Washington Center
11:16PM 39.5175 -75.4625 45° Northeast 428 493 24,800 600 Climbing Washington Center
11:18PM 39.6758 -75.2564 45° Northeast 443 510 25,800 600 Climbing New York Center
11:19PM 39.7644 -75.1217 49° Northeast 448 516 26,500 660 Climbing New York Center
11:20PM 39.8456 -75.0103 46° Northeast 457 526 27,200 660 Climbing New York Center
11:21PM 39.9311 -74.8883 48° Northeast 457 526 27,900 660 Climbing New York Center
11:22PM 40.0144 -74.7686 48° Northeast 452 520 28,600 540 Climbing New York Center
11:23PM 40.1156 -74.6739 36° Northeast 452 520 29,000 180 Climbing New York Center
11:24PM 40.2606 -74.6386 11° North 438 504 29,000  Level New York Center
11:25PM 40.3867 -74.6103 10° North 449 517 29,000  Level New York Center
11:26PM 40.5106 -74.5789 11° North 449 517 29,000  Level New York Center
11:27PM 40.7325 -74.5244 11° North 447 514 29,000  Level Boston Center
11:28PM 40.8519 -74.4981 North 447 514 29,000  Level Boston Center
11:29PM 40.9714 -74.4661 11° North 442 509 29,000  Level Boston Center
11:30PM 41.0925 -74.4397 North 436 502 29,000  Level Boston Center
11:31PM 41.1972 -74.4153 10° North 436 502 29,000  Level Boston Center
11:32PM 41.3144 -74.3886 10° North 428 493 29,000  Level Boston Center
11:33PM 41.4336 -74.3589 11° North 428 493 29,000  Level Boston Center
11:34PM 41.5614 -74.3322 North 428 493 29,000  Level Boston Center
11:36PM 41.6786 -74.3022 11° North 428 493 29,000  Level Boston Center
11:37PM 41.8147 -74.2675 11° North 423 487 29,000  Level Boston Center
11:38PM 41.9297 -74.2400 10° North 418 481 29,000  Level Boston Center
11:39PM 42.0447 -74.2125 10° North 418 481 29,000 -180 Level Boston Center
11:40PM 42.1597 -74.1850 10° North 411 473 28,700 -660 Descending Boston Center
11:41PM 42.2750 -74.1544 11° North 411 473 27,700 -900 Descending Boston Center
11:42PM 42.3900 -74.1267 10° North 411 473 27,000 -360 Descending Boston Center
11:43PM 42.5028 -74.0989 10° North 411 473 27,000  Level Boston Center
11:44PM 42.6014 -74.0733 11° North 411 473 27,000 -60 Level Boston Center
11:45PM 42.7100 -74.0450 11° North 406 467 26,900  Descending Boston Center
11:46PM 42.8167 -74.0167 11° North 395 455 27,000  Climbing Boston Center
11:47PM 42.9256 -73.9883 11° North 395 455 27,000  Level Boston Center
11:48PM 43.0322 -73.9597 11° North 395 455 27,000  Level Boston Center
11:49PM 43.1431 -73.9311 11° North 395 455 27,000  Level Boston Center
11:50PM 43.2517 -73.9053 10° North 395 455 27,000  Level Boston Center
11:51PM 43.3583 -73.8764 11° North 395 455 27,000  Level Boston Center
11:52PM 43.4775 -73.8450 11° North 395 455 27,000  Level Boston Center
11:53PM 43.5842 -73.8158 11° North 390 449 27,000  Level Boston Center
11:54PM 43.6803 -73.7894 11° North 390 449 27,000  Level Boston Center
11:55PM 43.7892 -73.7603 11° North 390 449 27,000 -600 Level Boston Center
11:56PM 43.9039 -73.7339 North 390 449 25,800 -1,260 Descending Boston Center
11:57PM 44.0086 -73.7044 11° North 390 449 24,500 -1,320 Descending Boston Center
11:58PM 44.1067 -73.6806 10° North 371 427 23,200 -1,320 Descending Boston Center
11:59PM 44.2069 -73.6506 12° North 366 421 21,900 -1,320 Descending Boston Center
12:00AM 44.3053 -73.6267 10° North 366 421 20,600 -1,320 Descending Boston Center
12:01AM 44.4033 -73.5994 11° North 361 415 19,300 -1,320 Descending Boston Center
12:02AM 44.5036 -73.5722 11° North 356 410 18,000 -1,320 Descending Boston Center
12:03AM 44.5978 -73.5478 10° North 351 404 16,700 -1,320 Descending Boston Center
12:04AM 44.6936 -73.5264 North 351 404 15,400 -1,200 Descending Boston Center
12:05AM 44.7667 -73.5336 356° North 346 398 14,400 -1,200 Descending Boston Center
12:06AM 44.8644 -73.5442 356° North 328 377 13,100 -1,560 Descending Boston Center
12:06AM 44.9167 -73.5333 North 310 357 12,000 -1,500 Descending Montreal Center
12:07AM 45.0000 -73.5333 360° North 310 357 10,800 -1,260 Descending Montreal Center
12:08AM 45.0833 -73.5000 16° North 300 345 9,500 -1,320 Descending Montreal Center
12:09AM 45.1667 -73.5000 360° North 290 334 8,200 -1,320 Descending Montreal Center
12:10AM 45.2333 -73.5000 360° North 270 311 6,900 -1,320 Descending Montreal Center
12:11AM 45.3167 -73.4833 North 270 311 5,600 -1,320 Descending Montreal Center
12:12AM 45.3833 -73.4833 360° North 260 299 4,300 -1,260 Descending Montreal Center
12:13AM 45.4667 -73.4667 North 250 288 3,100 -660 Descending Montreal Center
12:14AM 45.5333 -73.4833 350° North 240 276 3,000 -60 Descending Montreal Center
12:15AM 45.5667 -73.5333 314° West 220 253 3,000 -60 Level Montreal Center
12:16AM 45.5667 -73.6000 270° West 200 230 2,900 -600 Descending Montreal Center
12:17AM 45.5333 -73.6500 226° Southwest 170 196 1,900 -900 Descending Montreal Center
12:18AM 45.5000 -73.6667 199° South 140 161 1,100 -780 Descending Montreal Center
12:19AM 45.4833 -73.7167 245° Southwest 140 161 400 -540 Descending Montreal Center
12:20AM 45.4500 -73.7500 215° Southwest 60 69 100 -300 Descending Montreal Center